Occidental, California
Current Conditions -  °F | °C
As of 11:53 PM on Sunday 25 Jan 2015 (Local Time) from KSTS Reporting Station
Moderate Fog Moderate Fog  
Wind Chill: 40°   Ceiling: 100
Heat Index: 40°   Visibility: 0.25mi
Dew Point: 40°   Wind: 3mph
Humidity: 100%   Direction: 350°N
Pressure: 30.06"   Gusts: NA
Location:  38.41°N, 122.95°W
Report Text: KSTS 260753Z AUTO 35003KT 1/4SM FG VV001 04/04 A3006 RMK AO2 SLP172 T00440044 401720039
Loading
Personal Weather Stations






























Interactive Weather Map New forecast layout! Learn more

10-Day Weather Forecast

Advertisements
Track Severe Weather on mobile